createdAt,value
2016-10-10T00:00:09.989Z,66.01
2016-10-10T00:01:22.417Z,65.81
2016-10-10T00:02:35.912Z,66.07
2016-10-10T00:03:48.350Z,66.2
2016-10-10T00:05:01.343Z,66.2
2016-10-10T00:06:14.250Z,65.81
2016-10-10T00:07:27.244Z,65.72
2016-10-10T00:08:40.169Z,66.01
2016-10-10T00:09:52.622Z,65.72
2016-10-10T00:11:05.735Z,66.3
2016-10-10T00:12:18.697Z,66.01
2016-10-10T00:13:32.194Z,66.1
2016-10-10T00:14:45.697Z,65.88
2016-10-10T00:15:59.232Z,66.27
2016-10-10T00:17:12.346Z,66.3
2016-10-10T00:18:24.777Z,66.27
2016-10-10T00:19:37.710Z,66.2
2016-10-10T00:20:49.677Z,66.2
2016-10-10T00:22:03.415Z,66.36
2016-10-10T00:23:16.901Z,66.1
2016-10-10T00:24:29.396Z,66.65
2016-10-10T00:25:42.350Z,66.88
2016-10-10T00:26:55.376Z,66.49
2016-10-10T00:28:07.445Z,66.84
2016-10-10T00:29:20.453Z,67.16
2016-10-10T00:30:32.856Z,67.74
2016-10-10T00:31:46.367Z,67.65
2016-10-10T00:33:00.138Z,67.65
2016-10-10T00:34:12.661Z,67.51
2016-10-10T00:35:25.599Z,67.99
2016-10-10T00:36:38.568Z,67.03
2016-10-10T00:37:51.006Z,67.35
2016-10-10T00:39:03.450Z,66.74
2016-10-10T00:40:15.833Z,66.68
2016-10-10T00:41:29.364Z,66.65
2016-10-10T00:42:42.864Z,66.84
2016-10-10T00:43:56.564Z,66.27
2016-10-10T00:45:09.530Z,66.17
2016-10-10T00:46:23.072Z,66.17
2016-10-10T00:47:35.996Z,66.36
2016-10-10T00:48:48.477Z,66.17
2016-10-10T00:50:00.880Z,66.07
2016-10-10T00:51:14.071Z,65.97
2016-10-10T00:52:27.578Z,66.55
2016-10-10T00:53:41.066Z,66.17
2016-10-10T00:54:53.992Z,65.97
2016-10-10T00:56:06.973Z,65.88
2016-10-10T00:57:20.473Z,65.88
2016-10-10T00:58:33.990Z,66.07
2016-10-10T00:59:47.015Z,66.17
2016-10-10T01:00:59.752Z,66.36
2016-10-10T01:02:12.249Z,66.46
2016-10-10T01:03:25.164Z,66.65
2016-10-10T01:04:37.624Z,66.74
2016-10-10T01:05:51.223Z,66.84
2016-10-10T01:07:04.227Z,67.8
2016-10-10T01:08:17.839Z,67.58
2016-10-10T01:09:31.361Z,68.15
2016-10-10T01:10:44.908Z,68.06
2016-10-10T01:11:57.414Z,68.15
2016-10-10T01:13:10.383Z,68.35
2016-10-10T01:14:21.803Z,68.54
2016-10-10T01:15:34.215Z,69.02
2016-10-10T01:16:47.907Z,69.02
2016-10-10T01:18:00.326Z,69.02
2016-10-10T01:19:12.727Z,68.92
2016-10-10T01:20:25.170Z,69.31
2016-10-10T01:21:38.713Z,69.02
2016-10-10T01:22:52.158Z,69.21
2016-10-10T01:24:05.070Z,69.31
2016-10-10T01:25:17.502Z,69.69
2016-10-10T01:26:30.634Z,69.69
2016-10-10T01:27:43.809Z,69.6
2016-10-10T01:28:56.424Z,69.69
2016-10-10T01:30:08.824Z,69.69
2016-10-10T01:31:21.953Z,70.17
2016-10-10T01:32:35.485Z,70.17
2016-10-10T01:33:48.617Z,69.89
2016-10-10T01:35:01.617Z,69.6
2016-10-10T01:36:14.247Z,69.6
2016-10-10T01:37:26.643Z,69.6
2016-10-10T01:38:39.823Z,69.89
2016-10-10T01:39:53.428Z,69.69
2016-10-10T01:41:04.782Z,69.6
2016-10-10T01:42:18.291Z,69.69
2016-10-10T01:43:31.306Z,69.6
2016-10-10T01:44:44.993Z,69.69
2016-10-10T01:45:58.505Z,69.79
2016-10-10T01:47:10.973Z,70.07
2016-10-10T01:48:24.524Z,69.89
2016-10-10T01:49:37.618Z,69.69
2016-10-10T01:50:50.582Z,70.07
2016-10-10T01:52:04.101Z,70.17
2016-10-10T01:53:17.055Z,70.17
2016-10-10T01:54:30.501Z,69.89
2016-10-10T01:55:43.574Z,69.79
2016-10-10T01:56:56.998Z,69.79
2016-10-10T01:58:10.049Z,70.07
2016-10-10T01:59:23.056Z,69.98
2016-10-10T02:00:36.273Z,69.89
2016-10-10T02:01:48.834Z,69.98
2016-10-10T02:03:01.897Z,70.17
2016-10-10T02:04:13.866Z,69.98
2016-10-10T02:05:26.863Z,69.89
2016-10-10T02:06:39.834Z,69.6
2016-10-10T02:07:52.857Z,69.89
2016-10-10T02:09:05.271Z,69.89
2016-10-10T02:10:18.233Z,69.69
2016-10-10T02:11:30.788Z,69.89
2016-10-10T02:12:43.786Z,69.98
2016-10-10T02:13:57.360Z,69.79
2016-10-10T02:15:10.785Z,69.79
2016-10-10T02:16:22.726Z,70.07
2016-10-10T02:17:36.213Z,69.89
2016-10-10T02:18:48.649Z,69.69
2016-10-10T02:20:01.193Z,69.6
2016-10-10T02:21:15.199Z,69.85
2016-10-10T02:22:27.741Z,69.79
2016-10-10T02:23:41.212Z,70.23
2016-10-10T02:24:54.826Z,70.04
2016-10-10T02:26:08.308Z,70.14
2016-10-10T02:27:21.288Z,69.69
2016-10-10T02:28:34.438Z,70.23
2016-10-10T02:29:47.895Z,70.62
2016-10-10T02:31:01.422Z,70.72
2016-10-10T02:32:13.872Z,69.98
2016-10-10T02:33:27.466Z,69.98
2016-10-10T02:34:40.430Z,70.04
2016-10-10T02:35:53.955Z,70.43
2016-10-10T02:37:07.427Z,70.56
2016-10-10T02:38:19.928Z,70.37
2016-10-10T02:39:32.982Z,70.17
2016-10-10T02:40:45.494Z,70.23
2016-10-10T02:41:58.515Z,70.27
2016-10-10T02:43:11.515Z,70.23
2016-10-10T02:44:24.055Z,70.27
2016-10-10T02:45:35.927Z,70.84
2016-10-10T02:46:49.401Z,70.56
2016-10-10T02:48:02.944Z,70.43
2016-10-10T02:49:16.395Z,70.72
2016-10-10T02:50:28.417Z,70.65
2016-10-10T02:51:41.987Z,70.62
2016-10-10T02:52:55.009Z,70.33
2016-10-10T02:54:08.663Z,70.46
2016-10-10T02:55:21.768Z,70.23
2016-10-10T02:56:34.796Z,70.23
2016-10-10T02:57:47.878Z,70.52
2016-10-10T02:59:00.874Z,70.43
2016-10-10T03:00:14.570Z,70.52
2016-10-10T03:01:26.555Z,70.56
2016-10-10T03:02:39.582Z,70.52
2016-10-10T03:03:53.057Z,70.62
2016-10-10T03:05:06.607Z,70.52
2016-10-10T03:06:19.208Z,70.43
2016-10-10T03:07:32.679Z,71
2016-10-10T03:08:46.151Z,71
2016-10-10T03:09:59.138Z,70.72
2016-10-10T03:11:12.104Z,70.9
2016-10-10T03:12:25.069Z,70.52
2016-10-10T03:13:37.997Z,70.62
2016-10-10T03:14:51.493Z,70.33
2016-10-10T03:16:04.436Z,70.52
2016-10-10T03:17:17.709Z,70.52
2016-10-10T03:18:30.708Z,70.62
2016-10-10T03:19:43.149Z,70.52
2016-10-10T03:20:55.654Z,70.33
2016-10-10T03:22:08.614Z,70.33
2016-10-10T03:23:21.680Z,70.62
2016-10-10T03:24:35.222Z,70.14
2016-10-10T03:25:48.707Z,70.33
2016-10-10T03:27:01.179Z,70.52
2016-10-10T03:28:13.704Z,70.33
2016-10-10T03:29:26.086Z,70.75
2016-10-10T03:30:39.092Z,70.52
2016-10-10T03:31:52.528Z,70.56
2016-10-10T03:33:04.925Z,70.84
2016-10-10T03:34:17.789Z,70.62
2016-10-10T03:35:29.697Z,70.14
2016-10-10T03:36:42.595Z,70.33
2016-10-10T03:37:56.135Z,70.52
2016-10-10T03:39:09.772Z,70.33
2016-10-10T03:40:22.773Z,70.52
2016-10-10T03:41:35.705Z,70.33
2016-10-10T03:42:48.195Z,70.52
2016-10-10T03:44:01.138Z,70.43
2016-10-10T03:45:13.606Z,70.52
2016-10-10T03:46:27.227Z,70.33
2016-10-10T03:47:40.750Z,70.52
2016-10-10T03:48:52.630Z,70.52
2016-10-10T03:50:06.320Z,71
2016-10-10T03:51:18.750Z,70.72
2016-10-10T03:52:31.691Z,70.72
2016-10-10T03:53:44.699Z,71
2016-10-10T03:54:58.172Z,70.81
2016-10-10T03:56:11.666Z,70.62
2016-10-10T03:57:24.625Z,70.81
2016-10-10T03:58:37.643Z,70.9
2016-10-10T03:59:50.597Z,70.72
2016-10-10T04:01:03.698Z,70.62
2016-10-10T04:02:17.208Z,70.72
2016-10-10T04:03:30.139Z,70.62
2016-10-10T04:04:43.589Z,70.52
2016-10-10T04:05:55.457Z,70.72
2016-10-10T04:07:07.383Z,70.72
2016-10-10T04:08:20.425Z,70.72
2016-10-10T04:09:33.375Z,70.52
2016-10-10T04:10:46.413Z,70.62
2016-10-10T04:11:59.522Z,70.72
2016-10-10T04:13:12.567Z,70.81
2016-10-10T04:14:25.010Z,71.1
2016-10-10T04:15:37.964Z,71.29
2016-10-10T04:16:51.689Z,71
2016-10-10T04:18:04.189Z,71.67
2016-10-10T04:19:16.703Z,71.58
2016-10-10T04:20:29.626Z,71.67
2016-10-10T04:21:42.087Z,71.19
2016-10-10T04:22:54.733Z,71.67
2016-10-10T04:24:08.239Z,71.58
2016-10-10T04:25:20.696Z,71.48
2016-10-10T04:26:34.200Z,71.29
2016-10-10T04:27:46.194Z,71.58
2016-10-10T04:28:59.717Z,71.39
2016-10-10T04:30:12.665Z,71.67
2016-10-10T04:31:26.263Z,71.55
2016-10-10T04:32:39.773Z,71.55
2016-10-10T04:33:52.344Z,71.64
2016-10-10T04:35:04.719Z,71.16
2016-10-10T04:36:17.664Z,71.64
2016-10-10T04:37:29.015Z,71.64
2016-10-10T04:38:42.527Z,72.02
2016-10-10T04:39:54.433Z,72.5
2016-10-10T04:41:07.409Z,72.5
2016-10-10T04:42:20.957Z,72.99
2016-10-10T04:43:33.988Z,72.79
2016-10-10T04:44:47.093Z,72.79
2016-10-10T04:45:58.945Z,72.99
2016-10-10T04:47:11.442Z,72.99
2016-10-10T04:48:24.413Z,73.46
2016-10-10T04:49:37.941Z,73.08
2016-10-10T04:50:50.647Z,72.69
2016-10-10T04:52:04.235Z,72.99
2016-10-10T04:53:17.199Z,72.89
2016-10-10T04:54:30.194Z,72.6
2016-10-10T04:55:43.817Z,72.89
2016-10-10T04:56:56.797Z,72.99
2016-10-10T04:58:09.696Z,72.41
2016-10-10T04:59:22.682Z,72.6
2016-10-10T05:00:35.912Z,72.69
2016-10-10T05:01:48.955Z,72.6
2016-10-10T05:03:02.099Z,72.5
2016-10-10T05:04:14.563Z,72.6
2016-10-10T05:05:27.536Z,72.41
2016-10-10T05:06:39.776Z,72.41
2016-10-10T05:07:52.215Z,72.31
2016-10-10T05:09:05.180Z,72.12
2016-10-10T05:10:18.148Z,72.22
2016-10-10T05:11:31.089Z,71.83
2016-10-10T05:12:44.613Z,71.73
2016-10-10T05:13:57.572Z,72.12
2016-10-10T05:15:10.516Z,72.12
2016-10-10T05:16:23.468Z,71.83
2016-10-10T05:17:37.067Z,71.73
2016-10-10T05:18:49.525Z,72.02
2016-10-10T05:20:00.896Z,71.83
2016-10-10T05:21:13.313Z,72.02
2016-10-10T05:22:25.750Z,71.93
2016-10-10T05:23:38.758Z,72.31
2016-10-10T05:24:51.720Z,71.73
2016-10-10T05:26:04.140Z,72.02
2016-10-10T05:27:17.129Z,71.83
2016-10-10T05:28:30.203Z,72.31
2016-10-10T05:29:43.890Z,71.93
2016-10-10T05:30:56.790Z,72.02
2016-10-10T05:32:10.241Z,72.12
2016-10-10T05:33:23.780Z,72.22
2016-10-10T05:34:36.699Z,71.83
2016-10-10T05:35:50.196Z,71.83
2016-10-10T05:37:03.177Z,72.02
2016-10-10T05:38:16.666Z,72.12
2016-10-10T05:39:30.255Z,71.83
2016-10-10T05:40:43.807Z,72.12
2016-10-10T05:41:56.390Z,72.02
2016-10-10T05:43:09.933Z,72.12
2016-10-10T05:44:23.474Z,72.22
2016-10-10T05:45:35.886Z,72.08
2016-10-10T05:46:49.370Z,72.22
2016-10-10T05:48:02.327Z,72.37
2016-10-10T05:49:14.815Z,72.31
2016-10-10T05:50:27.417Z,72.08
2016-10-10T05:51:39.848Z,72.37
2016-10-10T05:52:52.222Z,72.28
2016-10-10T05:54:05.162Z,72.28
2016-10-10T05:55:16.676Z,72.47
2016-10-10T05:56:30.245Z,72.37
2016-10-10T05:57:42.719Z,72.47
2016-10-10T05:58:55.153Z,72.56
2016-10-10T06:00:07.512Z,72.37
2016-10-10T06:01:20.627Z,72.37
2016-10-10T06:02:33.069Z,72.37
2016-10-10T06:03:46.028Z,72.47
2016-10-10T06:04:59.489Z,72.66
2016-10-10T06:06:12.418Z,72.66
2016-10-10T06:07:25.770Z,72.66
2016-10-10T06:08:38.691Z,72.79
2016-10-10T06:09:51.636Z,72.95
2016-10-10T06:11:04.599Z,72.95
2016-10-10T06:12:18.151Z,73.04
2016-10-10T06:13:31.178Z,73.04
2016-10-10T06:14:44.928Z,73.04
2016-10-10T06:15:57.378Z,73.43
2016-10-10T06:17:10.315Z,73.33
2016-10-10T06:18:22.974Z,73.04
2016-10-10T06:19:36.164Z,73.81
2016-10-10T06:20:49.665Z,73.81
2016-10-10T06:22:02.131Z,73.52
2016-10-10T06:23:15.202Z,73.52
2016-10-10T06:24:27.102Z,73.62
2016-10-10T06:25:39.563Z,73.62
2016-10-10T06:26:51.968Z,73.72
2016-10-10T06:28:04.941Z,73.52
2016-10-10T06:29:18.568Z,73.62
2016-10-10T06:30:31.035Z,73.72
2016-10-10T06:31:43.436Z,73.91
2016-10-10T06:32:56.979Z,73.91
2016-10-10T06:34:10.557Z,74.19
2016-10-10T06:35:24.025Z,73.62
2016-10-10T06:36:36.396Z,73.72
2016-10-10T06:37:49.409Z,73.52
2016-10-10T06:39:02.390Z,73.85
2016-10-10T06:40:15.410Z,73.62
2016-10-10T06:41:28.916Z,74.1
2016-10-10T06:42:41.884Z,74.01
2016-10-10T06:43:54.832Z,74.01
2016-10-10T06:45:07.903Z,74.04
2016-10-10T06:46:20.309Z,74.39
2016-10-10T06:47:33.695Z,74.48
2016-10-10T06:48:47.182Z,75.06
2016-10-10T06:49:59.639Z,75.25
2016-10-10T06:51:12.113Z,75.06
2016-10-10T06:52:25.109Z,74.77
2016-10-10T06:53:38.605Z,74.29
2016-10-10T06:54:51.023Z,74.68
2016-10-10T06:56:04.614Z,75.35
2016-10-10T06:57:17.675Z,75.35
2016-10-10T06:58:30.611Z,74.96
2016-10-10T06:59:43.651Z,75.29
2016-10-10T07:00:56.105Z,75.54
2016-10-10T07:02:09.117Z,75.54
2016-10-10T07:03:20.974Z,75.73
2016-10-10T07:04:33.919Z,75.82
2016-10-10T07:05:46.392Z,75.92
2016-10-10T07:06:59.952Z,75.82
2016-10-10T07:08:12.866Z,75.54
2016-10-10T07:09:25.851Z,75.92
2016-10-10T07:10:38.263Z,75.82
2016-10-10T07:11:51.203Z,75.54
2016-10-10T07:13:03.641Z,75.92
2016-10-10T07:14:17.177Z,75.63
2016-10-10T07:15:29.582Z,75.73
2016-10-10T07:16:43.091Z,75.82
2016-10-10T07:17:55.074Z,75.63
2016-10-10T07:19:08.029Z,75.82
2016-10-10T07:20:21.009Z,75.82
2016-10-10T07:21:34.381Z,75.82
2016-10-10T07:22:47.848Z,75.92
2016-10-10T07:24:01.374Z,75.15
2016-10-10T07:25:14.271Z,75.15
2016-10-10T07:26:27.707Z,75.35
2016-10-10T07:27:40.094Z,75.92
2016-10-10T07:28:52.640Z,75.63
2016-10-10T07:30:05.068Z,75.63
2016-10-10T07:31:18.596Z,75.73
2016-10-10T07:32:32.127Z,75.73
2016-10-10T07:33:44.583Z,75.73
2016-10-10T07:34:57.635Z,75.63
2016-10-10T07:36:11.147Z,75.92
2016-10-10T07:37:24.562Z,76.02
2016-10-10T07:38:37.032Z,76.02
2016-10-10T07:39:48.528Z,75.92
2016-10-10T07:41:00.940Z,76.02
2016-10-10T07:42:14.016Z,75.92
2016-10-10T07:43:26.943Z,76.02
2016-10-10T07:44:39.987Z,76.02
2016-10-10T07:45:52.382Z,75.63
2016-10-10T07:47:05.306Z,75.82
2016-10-10T07:48:17.741Z,75.54
2016-10-10T07:49:30.161Z,75.63
2016-10-10T07:50:43.351Z,75.45
2016-10-10T07:51:56.339Z,75.82
2016-10-10T07:53:09.315Z,75.63
2016-10-10T07:54:22.378Z,75.63
2016-10-10T07:55:35.975Z,75.73
2016-10-10T07:56:47.920Z,75.82
2016-10-10T07:58:00.892Z,75.73
2016-10-10T07:59:13.894Z,75.92
2016-10-10T08:00:26.829Z,76.02
2016-10-10T08:01:39.359Z,75.92
2016-10-10T08:02:52.271Z,76.02
2016-10-10T08:04:05.229Z,76.12
2016-10-10T08:05:17.672Z,75.92
2016-10-10T08:06:30.576Z,75.92
2016-10-10T08:07:44.036Z,76.12
2016-10-10T08:08:57.500Z,76.02
2016-10-10T08:10:10.607Z,76.02
2016-10-10T08:11:23.615Z,75.92
2016-10-10T08:12:35.597Z,76.12
2016-10-10T08:13:47.487Z,75.63
2016-10-10T08:14:59.912Z,75.89
2016-10-10T08:16:13.430Z,75.92
2016-10-10T08:17:26.329Z,75.63
2016-10-10T08:18:39.854Z,75.25
2016-10-10T08:19:52.824Z,75.15
2016-10-10T08:21:06.546Z,75.35
2016-10-10T08:22:19.006Z,75.45
2016-10-10T08:23:31.569Z,74.58
2016-10-10T08:24:44.012Z,74.68
2016-10-10T08:25:56.421Z,75.35
2016-10-10T08:27:09.899Z,75.06
2016-10-10T08:28:23.354Z,75.25
2016-10-10T08:29:36.427Z,75.12
2016-10-10T08:30:49.896Z,75.31
2016-10-10T08:32:00.779Z,74.96
2016-10-10T08:33:13.757Z,75.31
2016-10-10T08:34:27.404Z,75.31
2016-10-10T08:35:40.837Z,75.12
2016-10-10T08:36:54.381Z,74.83
2016-10-10T08:38:07.916Z,75.02
2016-10-10T08:39:20.858Z,75.21
2016-10-10T08:40:33.878Z,75.31
2016-10-10T08:41:46.836Z,74.26
2016-10-10T08:43:00.280Z,75.4
2016-10-10T08:44:12.146Z,74.73
2016-10-10T08:45:25.707Z,74.93
2016-10-10T08:46:38.358Z,75.02
2016-10-10T08:47:50.843Z,75.12
2016-10-10T08:49:03.841Z,75.31
2016-10-10T08:50:17.274Z,75.21
2016-10-10T08:51:29.196Z,75.31
2016-10-10T08:52:42.675Z,75.31
2016-10-10T08:53:55.633Z,74.64
2016-10-10T08:55:08.650Z,75.27
2016-10-10T08:56:21.905Z,75.18
2016-10-10T08:57:34.855Z,75.37
2016-10-10T08:58:47.815Z,75.02
2016-10-10T09:00:00.477Z,74.51
2016-10-10T09:01:13.885Z,74.73
2016-10-10T09:02:26.404Z,74.98
2016-10-10T09:03:38.833Z,74.98
2016-10-10T09:04:51.247Z,74.6
2016-10-10T09:06:04.724Z,75.08
2016-10-10T09:07:18.248Z,75.18
2016-10-10T09:08:31.775Z,75.18
2016-10-10T09:09:45.240Z,74.89
2016-10-10T09:10:57.637Z,75.27
2016-10-10T09:12:10.051Z,74.51
2016-10-10T09:13:23.442Z,75.18
2016-10-10T09:14:35.840Z,75.37
2016-10-10T09:15:49.631Z,75.02
2016-10-10T09:17:02.638Z,75.31
2016-10-10T09:18:15.148Z,74.64
2016-10-10T09:19:27.537Z,75.31
2016-10-10T09:20:40.812Z,75.31
2016-10-10T09:21:53.766Z,75.4
2016-10-10T09:23:06.690Z,75.4
2016-10-10T09:24:19.617Z,75.21
2016-10-10T09:25:33.090Z,75.31
2016-10-10T09:26:46.098Z,75.12
2016-10-10T09:27:59.240Z,75.12
2016-10-10T09:29:12.966Z,75.21
2016-10-10T09:30:25.953Z,75.12
2016-10-10T09:31:38.387Z,75.4
2016-10-10T09:32:51.864Z,75.31
2016-10-10T09:34:05.283Z,75.02
2016-10-10T09:35:18.236Z,74.35
2016-10-10T09:36:30.675Z,74.64
2016-10-10T09:37:44.101Z,74.58
2016-10-10T09:38:57.768Z,73.72
2016-10-10T09:40:11.734Z,73.52
2016-10-10T09:41:25.242Z,73.62
2016-10-10T09:42:38.693Z,73.14
2016-10-10T09:43:54.897Z,73.62
2016-10-10T09:45:07.883Z,72.79
2016-10-10T09:46:20.349Z,72.79
2016-10-10T09:47:33.318Z,72.6
2016-10-10T09:48:46.192Z,72.41
2016-10-10T09:49:59.278Z,72.22
2016-10-10T09:51:12.677Z,72.02
2016-10-10T09:52:26.113Z,72.22
2016-10-10T09:53:39.565Z,71.06
2016-10-10T09:54:52.467Z,71.25
2016-10-10T09:56:05.954Z,71.55
2016-10-10T09:57:18.416Z,70.87
2016-10-10T09:58:31.900Z,70.58
2016-10-10T09:59:45.402Z,70.87
2016-10-10T10:00:57.941Z,70.58
2016-10-10T10:02:10.922Z,70.39
2016-10-10T10:03:23.400Z,70.29
2016-10-10T10:04:36.366Z,70.43
2016-10-10T10:05:48.793Z,70.04
2016-10-10T10:07:01.243Z,70.14
2016-10-10T10:08:13.080Z,70.14
2016-10-10T10:09:26.609Z,69.37
2016-10-10T10:10:39.529Z,68.79
2016-10-10T10:11:52.041Z,69.08
2016-10-10T10:13:05.494Z,68.98
2016-10-10T10:14:17.938Z,69.21
2016-10-10T10:15:30.871Z,68.44
2016-10-10T10:16:42.745Z,68.54
2016-10-10T10:17:54.179Z,68.31
2016-10-10T10:19:06.575Z,68.35
2016-10-10T10:20:19.530Z,68.35
2016-10-10T10:21:32.529Z,68.44
2016-10-10T10:22:46.123Z,68.15
2016-10-10T10:23:59.092Z,68.35
2016-10-10T10:25:12.116Z,67.77
2016-10-10T10:26:24.458Z,67.48
2016-10-10T10:27:37.924Z,67.22
2016-10-10T10:28:50.408Z,66.65
2016-10-10T10:30:03.909Z,66.27
2016-10-10T10:31:16.846Z,65.78
2016-10-10T10:32:29.805Z,66.07
2016-10-10T10:33:43.277Z,65.63
2016-10-10T10:34:56.467Z,65.43
2016-10-10T10:36:09.483Z,65.43
2016-10-10T10:37:21.890Z,65.33
2016-10-10T10:38:34.831Z,65.43
2016-10-10T10:39:47.271Z,65.63
2016-10-10T10:41:00.195Z,65.72
2016-10-10T10:42:13.141Z,66.1
2016-10-10T10:43:26.106Z,66.3
2016-10-10T10:44:39.141Z,66.46
2016-10-10T10:45:51.604Z,66.46
2016-10-10T10:47:05.160Z,66.27
2016-10-10T10:48:17.556Z,66.46
2016-10-10T10:49:30.792Z,66.36
2016-10-10T10:50:43.796Z,66.74
2016-10-10T10:51:56.224Z,67.22
2016-10-10T10:53:09.223Z,67.71
2016-10-10T10:54:22.350Z,67.8
2016-10-10T10:55:35.325Z,68.19
2016-10-10T10:56:48.249Z,68.09
2016-10-10T10:58:01.217Z,68.29
2016-10-10T10:59:14.719Z,68.09
2016-10-10T11:00:28.382Z,68.09
2016-10-10T11:01:41.384Z,67.55
2016-10-10T11:02:54.330Z,67.83
2016-10-10T11:04:06.770Z,67.07
2016-10-10T11:05:19.694Z,67.45
2016-10-10T11:06:32.636Z,67.65
2016-10-10T11:07:45.573Z,67.65
2016-10-10T11:08:58.504Z,68.13
2016-10-10T11:10:12.008Z,68.03
2016-10-10T11:11:24.626Z,68.13
2016-10-10T11:12:37.600Z,68.22
2016-10-10T11:13:50.589Z,67.93
2016-10-10T11:15:03.613Z,67.74
2016-10-10T11:16:17.048Z,67.74
2016-10-10T11:17:30.073Z,67.55
2016-10-10T11:18:43.750Z,67.07
2016-10-10T11:19:56.165Z,67.26
2016-10-10T11:21:08.091Z,67.16
2016-10-10T11:22:21.197Z,66.58
2016-10-10T11:23:34.698Z,66.71
2016-10-10T11:24:47.628Z,66.33
2016-10-10T11:26:01.094Z,65.85
2016-10-10T11:27:13.545Z,66.14
2016-10-10T11:28:26.971Z,66.24
2016-10-10T11:29:40.425Z,65.75
2016-10-10T11:30:53.886Z,65.66
2016-10-10T11:32:07.338Z,65.46
2016-10-10T11:33:20.985Z,64.98
2016-10-10T11:34:34.500Z,65.27
2016-10-10T11:35:47.646Z,64.63
2016-10-10T11:37:01.180Z,63.95
2016-10-10T11:38:14.181Z,63.38
2016-10-10T11:39:27.168Z,63.02
2016-10-10T11:40:40.698Z,62.54
2016-10-10T11:41:53.125Z,62.73
2016-10-10T11:43:06.645Z,61.77
2016-10-10T11:44:20.340Z,61.96
2016-10-10T11:45:33.811Z,62.06
2016-10-10T11:46:47.280Z,62.35
2016-10-10T11:47:59.687Z,62.45
2016-10-10T11:49:12.246Z,62.6
2016-10-10T11:50:25.764Z,62.99
2016-10-10T11:51:38.188Z,62.99
2016-10-10T11:52:50.587Z,63.38
2016-10-10T11:54:03.568Z,63.76
2016-10-10T11:55:17.249Z,63.57
2016-10-10T11:56:29.349Z,63.38
2016-10-10T11:57:42.856Z,63.44
2016-10-10T11:58:55.807Z,63.64
2016-10-10T12:00:07.964Z,64.21
2016-10-10T12:01:20.349Z,63.92
2016-10-10T12:02:33.834Z,63.73
2016-10-10T12:03:46.755Z,63.64
2016-10-10T12:04:59.221Z,63.73
2016-10-10T12:06:11.162Z,63.54
2016-10-10T12:07:24.055Z,63.34
2016-10-10T12:08:37.166Z,63.34
2016-10-10T12:09:50.626Z,63.44
2016-10-10T12:11:03.807Z,62.87
2016-10-10T12:12:16.744Z,62.51
2016-10-10T12:13:29.668Z,61.74
2016-10-10T12:14:42.776Z,61.74
2016-10-10T12:15:56.433Z,60.42
2016-10-10T12:17:10.397Z,60.23
2016-10-10T12:18:22.326Z,59.97
2016-10-10T12:19:35.239Z,58.91
2016-10-10T12:20:48.734Z,58.17
2016-10-10T12:22:01.255Z,57.59
2016-10-10T12:23:14.742Z,56.91
2016-10-10T12:24:27.726Z,56.56
2016-10-10T12:25:41.262Z,55.88
2016-10-10T12:26:54.802Z,55.3
2016-10-10T12:28:07.760Z,54.65
2016-10-10T12:29:20.854Z,53.88
2016-10-10T12:30:34.403Z,53.42
2016-10-10T12:31:47.890Z,53.23
2016-10-10T12:33:00.403Z,52.84
2016-10-10T12:34:13.964Z,52.09
2016-10-10T12:35:26.381Z,51.51
2016-10-10T12:36:39.550Z,50.67
2016-10-10T12:37:52.686Z,50.28
2016-10-10T12:39:05.281Z,49.05
2016-10-10T12:40:18.397Z,48.27
2016-10-10T12:41:31.591Z,47.81
2016-10-10T12:42:44.615Z,47.26
2016-10-10T12:43:57.610Z,46.97
2016-10-10T12:45:10.714Z,46.51
2016-10-10T12:46:23.771Z,45.83
2016-10-10T12:47:36.286Z,45.56
2016-10-10T12:48:48.676Z,45.07
2016-10-10T12:50:02.497Z,44.81
2016-10-10T12:51:16.313Z,43.74
2016-10-10T12:52:29.818Z,43.64
2016-10-10T12:53:43.377Z,42.79
2016-10-10T12:54:56.360Z,42.5
2016-10-10T12:56:09.380Z,42.21
2016-10-10T12:57:21.951Z,41.72
2016-10-10T12:58:35.211Z,41.26
2016-10-10T12:59:48.748Z,40.97
2016-10-10T13:01:01.712Z,40.67
2016-10-10T13:02:14.767Z,40.31
2016-10-10T13:03:27.668Z,40.23
2016-10-10T13:04:40.681Z,39.94
2016-10-10T13:05:54.423Z,39.45
2016-10-10T13:07:07.893Z,39.45
2016-10-10T13:08:20.890Z,38.96
2016-10-10T13:09:33.826Z,38.7
2016-10-10T13:10:46.080Z,38.6
2016-10-10T13:11:58.043Z,38.57
2016-10-10T13:13:11.011Z,38.5
2016-10-10T13:14:23.523Z,38.39
2016-10-10T13:15:35.947Z,38.57
2016-10-10T13:16:49.511Z,38.65
2016-10-10T13:18:03.113Z,38.56
2016-10-10T13:19:16.656Z,38.09
2016-10-10T13:20:30.487Z,37.7
2016-10-10T13:21:43.952Z,37.24
2016-10-10T13:22:56.957Z,36.94
2016-10-10T13:24:10.550Z,36.38
2016-10-10T13:25:23.489Z,36.57
2016-10-10T13:26:35.627Z,36.47
2016-10-10T13:27:49.161Z,36.18
2016-10-10T13:29:01.619Z,35.5
2016-10-10T13:30:15.185Z,35.33
2016-10-10T13:31:27.322Z,35.13
2016-10-10T13:32:39.862Z,35.33
2016-10-10T13:33:53.039Z,35.23
2016-10-10T13:35:04.438Z,35.8
2016-10-10T13:36:16.909Z,35.89
2016-10-10T13:37:30.834Z,36.16
2016-10-10T13:38:49.756Z,36.46
2016-10-10T13:40:10.751Z,36.85
2016-10-10T13:41:33.384Z,36.85
2016-10-10T13:42:56.203Z,36.65
2016-10-10T13:44:16.951Z,36.46
2016-10-10T13:45:30.113Z,36.46
2016-10-10T13:46:43.009Z,36.65
2016-10-10T13:47:55.981Z,36.36
2016-10-10T13:49:08.470Z,36.46
2016-10-10T13:50:21.393Z,36.85
2016-10-10T13:51:33.757Z,36.55
2016-10-10T13:52:46.209Z,36.75
2016-10-10T13:53:58.614Z,36.85
2016-10-10T13:55:11.729Z,36.85
2016-10-10T13:56:24.761Z,36.46
2016-10-10T13:57:37.917Z,36.36
2016-10-10T13:58:50.855Z,36.16
2016-10-10T14:00:03.869Z,35.97
2016-10-10T14:01:16.916Z,35.49
2016-10-10T14:02:29.854Z,35.02
2016-10-10T14:03:41.713Z,34.94
2016-10-10T14:04:54.253Z,34.94
2016-10-10T14:06:07.209Z,34.55
2016-10-10T14:07:20.197Z,34.25
2016-10-10T14:08:32.615Z,34.25
2016-10-10T14:09:44.526Z,34.45
2016-10-10T14:10:57.500Z,34.06
2016-10-10T14:12:10.439Z,33.88
2016-10-10T14:13:22.932Z,34.06
2016-10-10T14:14:35.395Z,34.45
2016-10-10T14:15:47.929Z,34.45
2016-10-10T14:17:00.550Z,34.64
2016-10-10T14:18:12.985Z,34.72
2016-10-10T14:19:26.511Z,34.82
2016-10-10T14:20:38.930Z,34.92
2016-10-10T14:21:51.406Z,34.92
2016-10-10T14:23:03.270Z,35.02
2016-10-10T14:24:16.588Z,35.02
2016-10-10T14:25:28.975Z,35.02
2016-10-10T14:26:40.932Z,35.11
2016-10-10T14:27:53.933Z,35.21
2016-10-10T14:29:07.406Z,34.94
2016-10-10T14:30:20.427Z,34.37
2016-10-10T14:31:33.906Z,33.59
2016-10-10T14:32:46.335Z,33.02
2016-10-10T14:33:59.862Z,33.31
2016-10-10T14:35:13.292Z,33.04
2016-10-10T14:36:26.252Z,32.94
2016-10-10T14:37:39.779Z,32.35
2016-10-10T14:38:53.274Z,32.55
2016-10-10T14:40:06.325Z,32.84
2016-10-10T14:41:19.917Z,33.23
2016-10-10T14:42:32.882Z,33.31
2016-10-10T14:43:45.835Z,33.22
2016-10-10T14:44:58.186Z,33.31
2016-10-10T14:46:11.638Z,32.92
2016-10-10T14:47:24.607Z,32.92
2016-10-10T14:48:37.578Z,32.45
2016-10-10T14:49:51.015Z,32.06
2016-10-10T14:51:04.157Z,31.96
2016-10-10T14:52:17.158Z,32.06
2016-10-10T14:53:30.204Z,31.77
2016-10-10T14:54:43.157Z,31.79
2016-10-10T14:55:56.777Z,31.59
2016-10-10T14:57:10.294Z,31.69
2016-10-10T14:58:23.250Z,31.4
2016-10-10T14:59:35.677Z,30.93
2016-10-10T15:00:48.414Z,29.77
2016-10-10T15:02:01.427Z,29.1
2016-10-10T15:03:14.444Z,29
2016-10-10T15:04:26.306Z,28.61
2016-10-10T15:05:39.797Z,28.81
2016-10-10T15:06:51.689Z,28.71
2016-10-10T15:08:04.097Z,28.23
2016-10-10T15:09:17.577Z,28.05
2016-10-10T15:10:30.549Z,28.25
2016-10-10T15:11:43.493Z,27.95
2016-10-10T15:12:57.088Z,27.86
2016-10-10T15:14:10.576Z,27.95
2016-10-10T15:15:23.575Z,27.38
2016-10-10T15:16:35.988Z,26.5
2016-10-10T15:17:49.570Z,25.84
2016-10-10T15:19:03.081Z,25.76
2016-10-10T15:20:16.538Z,25.46
2016-10-10T15:21:29.239Z,25.27
2016-10-10T15:22:42.284Z,25.66
2016-10-10T15:23:55.830Z,25.37
2016-10-10T15:25:09.449Z,24.4
2016-10-10T15:26:22.919Z,22.96
2016-10-10T15:27:35.942Z,21.91
2016-10-10T15:28:49.428Z,21.26
2016-10-10T15:30:02.409Z,21.36
2016-10-10T15:31:15.354Z,20.78
2016-10-10T15:32:27.805Z,20.57
2016-10-10T15:33:40.939Z,20.76
2016-10-10T15:34:53.344Z,20.57
2016-10-10T15:36:06.318Z,19.79
2016-10-10T15:37:19.276Z,19.21
2016-10-10T15:38:31.295Z,18.25
2016-10-10T15:39:44.749Z,18.35
2016-10-10T15:40:58.275Z,17.76
2016-10-10T15:42:10.682Z,16.99